Time;durP1;ratioP1;P1;durP2;ratioP2;P2;SDS_P1;SDS_P2;PMS_P1;PMS_P2;Temp;Humidity;BMP_temperature;BMP_pressure;BME280_temperature;BME280_humidity;BME280_pressure;Samples;Min_cycle;Max_cycle;Signal;HPM_P1;HPM_P2
2023/01/17 00:01:28;;;;;;;0.00;0.00;;;;;;;1.63;70.51;98379.88;7360164;19;20038;-56
2023/01/17 00:12:06;;;;;;;0.00;0.00;;;;;;;1.55;71.08;98379.22;7362507;19;20021;-56
2023/01/17 00:14:32;;;;;;;0.10;0.10;;;;;;;1.35;71.14;98347.97;7359108;19;20014;-56
2023/01/17 00:17:00;;;;;;;0.10;0.10;;;;;;;1.49;70.72;98376.78;7362699;19;20014;-55
2023/01/17 01:34:06;;;;;;;0.10;0.10;;;;;;;0.92;71.21;98366.94;7359164;19;20454;-54
2023/01/17 01:36:31;;;;;;;0.10;0.10;;;;;;;0.88;71.29;98360.16;7356697;19;20006;-56
2023/01/17 01:38:57;;;;;;;0.10;0.10;;;;;;;0.89;71.33;98365.25;7360537;19;20015;-55
2023/01/17 01:41:22;;;;;;;0.10;0.10;;;;;;;0.88;71.24;98362.72;7361708;19;20022;-55
2023/01/17 01:43:50;;;;;;;0.10;0.10;;;;;;;0.86;71.31;98364.47;7356441;19;20015;-55
2023/01/17 01:46:35;;;;;;;0.10;0.10;;;;;;;0.87;71.35;98361.06;7356245;19;20014;-55
2023/01/17 01:49:17;;;;;;;0.10;0.10;;;;;;;0.85;71.37;98367.94;7359061;19;20010;-56
2023/01/17 01:51:49;;;;;;;0.00;0.00;;;;;;;0.85;71.78;98365.34;7358386;19;20007;-53
2023/01/17 01:54:22;;;;;;;0.10;0.10;;;;;;;0.83;71.56;98359.41;7354806;19;20846;-57
2023/01/17 01:56:50;;;;;;;0.00;0.00;;;;;;;0.81;71.70;98359.44;7359364;19;20086;-57
2023/01/17 01:59:18;;;;;;;;;;;;;;;0.81;71.02;98361.16;7357104;19;20015;-55
2023/01/17 02:01:43;;;;;;;0.10;0.10;;;;;;;0.79;71.14;98374.03;7360492;19;20007;-55
2023/01/17 02:04:09;;;;;;;0.10;0.10;;;;;;;0.77;71.22;98386.94;7355721;19;20647;-53
2023/01/17 02:06:38;;;;;;;0.10;0.10;;;;;;;0.76;71.61;98385.25;7359867;19;20029;-55
2023/01/17 02:09:10;;;;;;;0.10;0.10;;;;;;;0.75;71.29;98378.38;7358307;19;20707;-56
2023/01/17 02:11:37;;;;;;;0.00;0.00;;;;;;;0.67;71.42;98377.72;7358794;19;20486;-52
2023/01/17 02:14:03;;;;;;;0.07;0.07;;;;;;;0.71;71.50;98386.19;7363154;19;20792;-56
2023/01/17 02:17:02;;;;;;;0.08;0.08;;;;;;;0.68;71.30;98389.69;7365526;19;20565;-57
2023/01/17 02:20:08;;;;;;;0.00;0.00;;;;;;;0.69;71.25;98399.06;7255574;19;2004127;-54
2023/01/17 02:22:35;;;;;;;0.10;0.10;;;;;;;0.67;72.03;98395.69;7258830;19;2004380;-54
2023/01/17 02:25:01;;;;;;;0.10;0.10;;;;;;;0.65;72.18;98391.44;7364279;19;20039;-53
2023/01/17 02:27:31;;;;;;;0.00;0.00;;;;;;;0.63;71.83;98382.94;7364881;19;20010;-52
2023/01/17 02:30:18;;;;;;;0.03;0.03;;;;;;;0.57;71.87;98373.63;7360314;19;20014;-55
2023/01/17 02:33:24;;;;;;;0.10;0.10;;;;;;;0.62;72.17;98387.22;7366597;19;20041;-56
2023/01/17 02:36:08;;;;;;;0.00;0.00;;;;;;;0.60;72.12;98394.09;7257450;19;2004217;-56
2023/01/17 02:38:42;;;;;;;0.10;0.10;;;;;;;0.61;71.69;98395.81;7367294;19;20015;-56
2023/01/17 02:41:14;;;;;;;0.10;0.10;;;;;;;0.59;71.79;98392.41;7361228;19;20011;-54
2023/01/17 02:43:40;;;;;;;0.03;0.03;;;;;;;0.57;71.78;98403.63;7367045;19;20019;-55
2023/01/17 02:46:05;;;;;;;0.10;0.10;;;;;;;0.54;71.76;98395.97;7361502;19;24346;-54
2023/01/17 02:48:35;;;;;;;0.10;0.10;;;;;;;0.50;72.34;98393.44;7365833;19;20086;-52
2023/01/17 02:51:09;;;;;;;0.10;0.10;;;;;;;0.52;71.87;98385.72;7362806;19;20011;-56
2023/01/17 02:53:53;;;;;;;0.10;0.10;;;;;;;0.50;72.13;98388.31;7362555;19;20790;-56
2023/01/17 02:56:21;;;;;;;0.10;0.10;;;;;;;0.49;71.97;98381.47;7366431;19;20041;-57
2023/01/17 02:59:37;;;;;;;0.10;0.10;;;;;;;0.49;72.08;98390.91;7349596;19;20020;-55
2023/01/17 03:02:21;;;;;;;0.10;0.10;;;;;;;0.44;72.41;98392.72;7259951;19;2004405;-54
2023/01/17 03:05:09;;;;;;;0.10;0.10;;;;;;;0.48;72.52;98392.63;7363819;19;20379;-54
2023/01/17 03:07:36;;;;;;;0.10;0.10;;;;;;;0.48;72.51;98392.63;7365403;19;20620;-55
2023/01/17 03:10:04;;;;;;;0.10;0.10;;;;;;;0.38;72.63;98377.44;7364541;19;20014;-56
2023/01/17 03:12:33;;;;;;;0.10;0.10;;;;;;;0.49;72.62;98385.78;7365345;19;20041;-57
2023/01/17 03:14:58;;;;;;;0.10;0.10;;;;;;;0.50;72.74;98382.31;7360723;19;20015;-54
2023/01/17 03:17:30;;;;;;;0.10;0.10;;;;;;;0.50;73.23;98383.16;7363858;19;21270;-54
2023/01/17 03:19:55;;;;;;;0.00;0.00;;;;;;;0.50;73.00;98379.75;7360862;19;20010;-56
2023/01/17 03:22:20;;;;;;;0.10;0.10;;;;;;;0.51;72.88;98368.63;7360797;19;20010;-55
2023/01/17 03:24:46;;;;;;;0.10;0.10;;;;;;;0.52;72.81;98365.19;7358855;19;20010;-55
2023/01/17 03:27:12;;;;;;;0.10;0.10;;;;;;;0.52;72.96;98367.75;7363867;19;20415;-53
2023/01/17 03:29:37;;;;;;;0.10;0.10;;;;;;;0.52;72.70;98365.19;7363838;19;20033;-52
2023/01/17 03:32:03;;;;;;;0.10;0.10;;;;;;;0.50;72.76;98367.75;7358942;19;20038;-55
2023/01/17 03:34:28;;;;;;;0.00;0.00;;;;;;;0.51;72.87;98366.06;7362712;19;20022;-52
2023/01/17 03:36:54;;;;;;;0.10;0.10;;;;;;;0.49;72.78;98360.09;7363130;19;20015;-56
2023/01/17 03:39:19;;;;;;;0.10;0.10;;;;;;;0.48;72.49;98350.72;7363547;19;20078;-55
2023/01/17 03:41:45;;;;;;;0.00;0.00;;;;;;;0.43;72.49;98344.81;7361885;19;20002;-55
2023/01/17 03:44:10;;;;;;;0.10;0.10;;;;;;;0.46;72.35;98349.91;7354595;19;20108;-55
2023/01/17 03:46:35;;;;;;;0.00;0.00;;;;;;;0.44;72.41;98356.78;7362028;19;20010;-56
2023/01/17 03:49:01;;;;;;;0.05;0.05;;;;;;;0.43;72.25;98365.34;7361846;19;20066;-56
2023/01/17 03:51:26;;;;;;;0.10;0.10;;;;;;;0.42;72.51;98368.81;7364002;19;20010;-57
2023/01/17 03:53:52;;;;;;;0.10;0.10;;;;;;;0.41;72.64;98372.25;7362021;19;20034;-50
2023/01/17 03:56:17;;;;;;;0.00;0.00;;;;;;;0.26;72.95;98363.13;7362589;19;20737;-55
2023/01/17 03:58:43;;;;;;;0.10;0.10;;;;;;;0.39;73.01;98374.00;7355496;19;20042;-54
2023/01/17 04:01:09;;;;;;;0.03;0.03;;;;;;;0.39;72.73;98379.13;7360230;19;20018;-54
2023/01/17 04:03:34;;;;;;;0.10;0.10;;;;;;;0.38;72.67;98382.56;7361051;19;20565;-56
2023/01/17 04:06:00;;;;;;;0.10;0.10;;;;;;;0.37;72.60;98386.00;7342580;19;20038;-57
2023/01/17 04:08:26;;;;;;;0.10;0.10;;;;;;;0.28;72.74;98376.75;7366614;19;20026;-51
2023/01/17 04:10:51;;;;;;;0.00;0.00;;;;;;;0.34;72.74;98386.91;7359894;19;20037;-53
2023/01/17 04:13:16;;;;;;;0.05;0.05;;;;;;;0.32;72.56;98387.81;7360038;19;20018;-57
2023/01/17 04:15:44;;;;;;;0.10;0.10;;;;;;;0.33;72.48;98389.50;7363008;19;20016;-55
2023/01/17 04:18:11;;;;;;;;;;;;;;;0.33;72.21;98386.94;7360039;19;20651;-56
2023/01/17 04:20:38;;;;;;;0.10;0.10;;;;;;;0.29;72.49;98387.88;7345342;19;19956;-55
2023/01/17 04:23:04;;;;;;;0.00;0.00;;;;;;;0.29;72.75;98385.31;7361883;19;20029;-52
2023/01/17 04:25:30;;;;;;;0.00;0.00;;;;;;;0.25;72.71;98387.94;7360418;19;20506;-55
2023/01/17 04:27:57;;;;;;;0.00;0.00;;;;;;;0.25;72.66;98394.78;7360298;19;20017;-56
2023/01/17 04:30:23;;;;;;;0.05;0.05;;;;;;;0.15;72.70;98386.41;7359259;19;20392;-54
2023/01/17 04:32:48;;;;;;;0.10;0.10;;;;;;;0.20;72.78;98389.75;7357528;19;20018;-53
2023/01/17 04:35:14;;;;;;;0.10;0.10;;;;;;;0.19;72.77;98398.28;7359974;19;20019;-55
2023/01/17 04:37:39;;;;;;;0.10;0.10;;;;;;;0.18;72.58;98385.50;7359310;19;20010;-55
2023/01/17 04:40:06;;;;;;;0.00;0.00;;;;;;;0.03;72.58;98366.09;7360570;19;20984;-54
2023/01/17 04:42:31;;;;;;;0.00;0.00;;;;;;;0.17;72.34;98397.50;7361747;19;20753;-52
2023/01/17 04:44:57;;;;;;;0.10;0.10;;;;;;;0.11;72.56;98389.91;7358869;19;20007;-55
2023/01/17 04:47:22;;;;;;;0.00;0.00;;;;;;;0.13;72.63;98395.84;7362593;19;20006;-56
2023/01/17 04:49:48;;;;;;;0.10;0.10;;;;;;;0.13;72.55;98397.56;7361555;19;20464;-52
2023/01/17 04:52:14;;;;;;;0.08;0.08;;;;;;;0.11;72.72;98405.31;7361305;19;20042;-53
2023/01/17 04:54:40;;;;;;;0.00;0.00;;;;;;;0.10;72.38;98403.63;7361493;19;20018;-52
2023/01/17 04:57:05;;;;;;;0.00;0.00;;;;;;;-0.01;72.40;98395.25;7360002;19;20015;-54
2023/01/17 04:59:31;;;;;;;0.10;0.10;;;;;;;0.09;72.34;98416.44;7363662;19;20038;-54
2023/01/17 05:01:56;;;;;;;0.00;0.00;;;;;;;0.08;72.24;98413.03;7356802;19;20018;-55
2023/01/17 05:04:21;;;;;;;0.10;0.10;;;;;;;0.05;72.38;98410.56;7361792;19;20011;-54
2023/01/17 05:06:47;;;;;;;0.00;0.00;;;;;;;0.05;72.61;98414.81;7355618;19;20014;-56
2023/01/17 05:09:12;;;;;;;0.10;0.10;;;;;;;0.03;72.15;98412.28;7361174;19;20097;-57
2023/01/17 05:11:38;;;;;;;0.10;0.10;;;;;;;-0.05;72.46;98399.59;7359292;19;20024;-53
2023/01/17 05:14:03;;;;;;;0.00;0.00;;;;;;;-0.04;72.17;98400.44;7362879;19;20037;-53
2023/01/17 05:16:28;;;;;;;0.05;0.05;;;;;;;-0.04;72.56;98397.88;7356974;19;20407;-54
2023/01/17 05:18:54;;;;;;;0.00;0.00;;;;;;;-0.03;72.09;98407.25;7360585;19;20102;-56
2023/01/17 05:21:20;;;;;;;0.10;0.10;;;;;;;-0.04;72.39;98400.44;7362644;19;20011;-52
2023/01/17 05:23:46;;;;;;;0.00;0.00;;;;;;;-0.05;72.13;98398.72;7356703;19;20022;-55
2023/01/17 05:26:12;;;;;;;0.10;0.10;;;;;;;-0.08;72.10;98393.66;7360802;19;20013;-57
2023/01/17 05:28:37;;;;;;;0.00;0.00;;;;;;;-0.07;72.30;98403.03;7357571;19;21697;-55
2023/01/17 05:31:03;;;;;;;0.10;0.10;;;;;;;-0.20;72.47;98386.16;7360536;19;20010;-53
2023/01/17 05:33:28;;;;;;;0.10;0.10;;;;;;;-0.11;72.03;98404.81;7357681;19;20114;-54
2023/01/17 05:35:54;;;;;;;0.10;0.10;;;;;;;-0.11;72.61;98406.53;7360083;19;20023;-49
2023/01/17 05:38:19;;;;;;;0.00;0.00;;;;;;;-0.13;72.53;98411.69;7358576;19;20011;-55
2023/01/17 05:40:45;;;;;;;0.10;0.10;;;;;;;-0.13;72.29;98410.84;7359735;19;20702;-56
2023/01/17 05:43:10;;;;;;;0.10;0.10;;;;;;;-0.14;72.14;98404.03;7360945;19;20026;-51
2023/01/17 05:45:36;;;;;;;0.00;0.00;;;;;;;-0.15;72.56;98402.31;7358720;19;20014;-55
2023/01/17 05:48:02;;;;;;;0.10;0.10;;;;;;;-0.15;72.41;98412.56;7363437;19;20082;-58
2023/01/17 05:50:31;;;;;;;0.00;0.00;;;;;;;-0.17;72.42;98411.75;7365248;19;20029;-52
2023/01/17 05:52:59;;;;;;;0.00;0.00;;;;;;;-0.17;72.30;98409.19;7362490;19;20360;-57
2023/01/17 05:55:26;;;;;;;0.10;0.10;;;;;;;-0.20;72.19;98415.25;7365096;19;20033;-52
2023/01/17 05:57:52;;;;;;;0.10;0.10;;;;;;;-0.26;72.56;98408.47;7362419;19;20348;-55
2023/01/17 06:00:18;;;;;;;0.10;0.10;;;;;;;-0.36;72.54;98394.09;7367371;19;20002;-53
2023/01/17 06:02:44;;;;;;;0.10;0.10;;;;;;;-0.23;72.21;98424.69;7360310;19;20010;-57
2023/01/17 06:05:10;;;;;;;0.10;0.10;;;;;;;-0.24;72.33;98423.00;7364621;19;20018;-55
2023/01/17 06:07:36;;;;;;;0.00;0.00;;;;;;;-0.27;72.36;98424.72;7366077;19;20018;-53
2023/01/17 06:10:02;;;;;;;0.03;0.03;;;;;;;-0.27;72.20;98424.72;7363901;19;21279;-53
2023/01/17 06:12:27;;;;;;;0.10;0.10;;;;;;;-0.31;72.60;98420.50;7365129;19;20015;-51
2023/01/17 06:14:53;;;;;;;0.00;0.00;;;;;;;-0.30;72.46;98424.78;7363295;19;21921;-54
2023/01/17 06:17:18;;;;;;;0.10;0.10;;;;;;;-0.31;72.65;98417.94;7362396;19;20676;-53
2023/01/17 06:19:44;;;;;;;0.00;0.00;;;;;;;-0.32;72.36;98421.38;7365261;19;20031;-54
2023/01/17 06:22:10;;;;;;;0.10;0.10;;;;;;;-0.32;72.37;98426.53;7365030;19;20403;-53
2023/01/17 06:24:35;;;;;;;0.00;0.00;;;;;;;-0.33;72.12;98424.81;7363470;19;20010;-54
2023/01/17 06:27:01;;;;;;;0.00;0.00;;;;;;;-0.38;72.01;98421.50;7363971;19;20021;-53
2023/01/17 06:29:26;;;;;;;0.05;0.05;;;;;;;-0.36;72.49;98418.88;7367105;19;20019;-57
2023/01/17 06:31:52;;;;;;;0.10;0.10;;;;;;;-0.38;72.46;98416.38;7366399;19;20439;-54
2023/01/17 06:34:17;;;;;;;0.00;0.00;;;;;;;-0.38;72.28;98416.38;7358505;19;20100;-56
2023/01/17 06:36:43;;;;;;;0.00;0.00;;;;;;;-0.42;72.34;98421.56;7366483;19;20015;-52
2023/01/17 06:39:09;;;;;;;0.00;0.00;;;;;;;-0.51;72.33;98404.59;7362197;19;20002;-56
2023/01/17 06:41:34;;;;;;;0.00;0.00;;;;;;;-0.55;72.47;98406.38;7364730;19;20733;-54
2023/01/17 06:44:00;;;;;;;0.00;0.00;;;;;;;-0.42;72.08;98435.22;7360037;19;20010;-57
2023/01/17 06:46:25;;;;;;;0.10;0.10;;;;;;;-0.43;72.44;98440.38;7366464;19;20035;-55
2023/01/17 06:48:51;;;;;;;0.00;0.00;;;;;;;-0.44;72.51;98446.38;7364494;19;20014;-53
2023/01/17 06:51:16;;;;;;;0.10;0.10;;;;;;;-0.45;72.31;98454.94;7360828;19;20034;-53
2023/01/17 06:53:42;;;;;;;0.00;0.00;;;;;;;-0.46;72.35;98450.66;7364407;19;20039;-54
2023/01/17 06:56:08;;;;;;;0.00;0.00;;;;;;;-0.46;72.27;98448.09;7364744;19;20017;-55
2023/01/17 06:58:34;;;;;;;0.10;0.10;;;;;;;-0.48;72.46;98444.72;7350617;19;20010;-55
2023/01/17 07:01:14;;;;;;;0.10;0.10;;;;;;;-0.47;72.29;98452.38;7364121;19;20006;-55
2023/01/17 07:03:39;;;;;;;0.10;0.10;;;;;;;-0.49;72.21;98454.13;7360465;19;20014;-54
2023/01/17 07:06:05;;;;;;;0.05;0.05;;;;;;;-0.65;72.24;98434.72;7361418;19;20026;-53
2023/01/17 07:08:31;;;;;;;0.00;0.00;;;;;;;-0.51;72.30;98458.41;7363516;19;20022;-54
2023/01/17 07:11:02;;;;;;;0.10;0.10;;;;;;;-0.51;72.00;98463.56;7363674;19;20023;-57
2023/01/17 07:13:29;;;;;;;0.10;0.10;;;;;;;-0.53;72.17;98452.47;7361453;19;20698;-52
2023/01/17 07:15:55;;;;;;;0.10;0.10;;;;;;;-0.54;72.39;98467.03;7359725;19;20026;-55
2023/01/17 07:18:22;;;;;;;0.10;0.10;;;;;;;-0.66;72.15;98450.94;7360444;19;20417;-50
2023/01/17 07:20:52;;;;;;;0.10;0.10;;;;;;;-0.56;72.20;98463.63;7360277;19;20011;-56
2023/01/17 07:23:20;;;;;;;0.10;0.10;;;;;;;-0.57;72.33;98469.63;7361681;19;20007;-54
2023/01/17 07:25:56;;;;;;;;;;;;;;;-0.56;71.98;98481.59;7360634;19;20014;-57
2023/01/17 07:28:22;;;;;;;0.00;0.00;;;;;;;-0.59;71.91;98488.47;7359825;19;20620;-58
2023/01/17 07:30:48;;;;;;;0.10;0.10;;;;;;;-0.61;72.10;98485.06;7361685;19;20046;-56
2023/01/17 07:33:13;;;;;;;0.10;0.10;;;;;;;-0.76;72.31;98477.56;7363117;19;20783;-55
2023/01/17 07:35:39;;;;;;;0.10;0.10;;;;;;;-0.72;71.95;98487.75;7358198;19;26182;-56
2023/01/17 07:38:10;;;;;;;0.10;0.10;;;;;;;-0.69;72.23;98495.41;7363354;19;20114;-53
2023/01/17 07:40:35;;;;;;;0.00;0.00;;;;;;;-0.68;72.06;98498.81;7359519;19;20006;-55
2023/01/17 07:43:01;;;;;;;0.10;0.10;;;;;;;-0.74;72.08;98498.91;7362982;19;20014;-56
2023/01/17 07:45:26;;;;;;;0.10;0.10;;;;;;;-0.71;72.38;98503.97;7362589;19;20471;-53
2023/01/17 07:47:52;;;;;;;0.10;0.10;;;;;;;-0.71;72.29;98509.09;7357962;19;20479;-52
2023/01/17 07:50:18;;;;;;;0.10;0.10;;;;;;;-0.72;72.51;98512.53;7346883;19;20085;-55
2023/01/17 07:52:48;;;;;;;0.10;0.10;;;;;;;-0.72;72.38;98515.09;7363121;19;20006;-56
2023/01/17 07:55:14;;;;;;;0.10;0.10;;;;;;;-0.81;72.16;98513.53;7361906;19;20014;-55
2023/01/17 07:57:39;;;;;;;0.10;0.10;;;;;;;-0.76;72.51;98516.00;7363122;19;22770;-56
2023/01/17 08:00:05;;;;;;;0.05;0.05;;;;;;;-0.75;72.37;98521.13;7358104;19;20018;-57
2023/01/17 08:02:31;;;;;;;0.00;0.00;;;;;;;-0.76;72.29;98521.13;7362093;19;20015;-55
2023/01/17 08:04:56;;;;;;;0.10;0.10;;;;;;;-0.77;72.03;98529.69;7359996;19;20039;-55
2023/01/17 08:07:22;;;;;;;0.00;0.00;;;;;;;-0.77;72.14;98529.69;7354713;19;20585;-55
2023/01/17 08:09:48;;;;;;;0.00;0.00;;;;;;;-0.79;72.09;98538.25;7357024;19;20010;-55
2023/01/17 08:12:15;;;;;;;0.08;0.08;;;;;;;-0.80;72.46;98534.00;7361619;19;20018;-55
2023/01/17 08:14:40;;;;;;;0.00;0.00;;;;;;;-0.81;72.34;98539.16;7361507;19;20010;-53
2023/01/17 08:17:09;;;;;;;0.10;0.10;;;;;;;-0.81;72.41;98539.16;7362211;19;20102;-53
2023/01/17 08:19:34;;;;;;;0.10;0.10;;;;;;;-0.82;72.06;98533.16;7360019;19;20477;-53
2023/01/17 08:22:00;;;;;;;0.08;0.08;;;;;;;-0.84;72.38;98546.84;7362033;19;20014;-57
2023/01/17 08:24:25;;;;;;;0.00;0.00;;;;;;;-0.89;72.25;98536.66;7360987;19;20050;-53
2023/01/17 08:26:53;;;;;;;0.00;0.00;;;;;;;-0.85;72.16;98547.72;7362587;19;20450;-52
2023/01/17 08:29:19;;;;;;;0.10;0.10;;;;;;;-0.86;72.50;98546.88;7359281;19;20471;-52
2023/01/17 08:31:44;;;;;;;0.10;0.10;;;;;;;-0.86;71.99;98546.88;7363075;19;21164;-56
2023/01/17 08:34:10;;;;;;;0.10;0.10;;;;;;;-0.88;72.21;98553.72;7361754;19;20021;-54
2023/01/17 08:36:35;;;;;;;0.10;0.10;;;;;;;-0.97;72.20;98541.00;7364067;19;20014;-52
2023/01/17 08:39:01;;;;;;;0.03;0.03;;;;;;;-0.88;72.05;98558.00;7358939;19;20014;-54
2023/01/17 08:41:26;;;;;;;0.10;0.10;;;;;;;-0.87;72.16;98565.66;7359456;19;20014;-57
2023/01/17 08:43:52;;;;;;;0.10;0.10;;;;;;;-0.87;71.88;98563.09;7359390;19;20034;-51
2023/01/17 08:46:18;;;;;;;0.10;0.10;;;;;;;-0.88;72.06;98569.09;7363113;19;20018;-53
2023/01/17 08:48:44;;;;;;;0.00;0.00;;;;;;;-0.93;72.10;98565.72;7356695;19;20023;-50
2023/01/17 08:51:10;;;;;;;0.00;0.00;;;;;;;-0.87;72.02;98569.94;7345483;19;20011;-55
2023/01/17 08:53:35;;;;;;;0.00;0.00;;;;;;;-0.87;72.04;98575.91;7360703;19;20104;-54
2023/01/17 08:56:02;;;;;;;0.00;0.00;;;;;;;-0.88;71.99;98571.66;7361637;19;21499;-55
2023/01/17 08:58:29;;;;;;;0.00;0.00;;;;;;;-0.87;72.30;98575.91;7361362;19;20014;-56
2023/01/17 09:01:01;;;;;;;0.10;0.10;;;;;;;-0.87;72.12;98575.91;7361271;19;20965;-53
2023/01/17 09:03:26;;;;;;;0.00;0.00;;;;;;;-0.88;72.46;98579.34;7359259;19;20050;-53
2023/01/17 09:06:09;;;;;;;0.08;0.08;;;;;;;-0.86;72.34;98582.75;7359761;19;20332;-52
2023/01/17 09:08:34;;;;;;;0.00;0.00;;;;;;;-0.87;72.37;98591.28;7360289;19;20015;-52
2023/01/17 09:11:09;;;;;;;0.10;0.10;;;;;;;-0.87;72.37;98587.88;7362189;19;20030;-55
2023/01/17 09:13:34;;;;;;;0.10;0.10;;;;;;;-0.87;72.35;98606.66;7362964;19;20031;-50
2023/01/17 09:16:00;;;;;;;0.00;0.00;;;;;;;-0.99;72.26;98581.19;7359621;19;20018;-56
2023/01/17 09:18:27;;;;;;;0.10;0.10;;;;;;;-0.86;72.28;98602.41;7362703;19;20006;-56
2023/01/17 09:20:54;;;;;;;0.00;0.00;;;;;;;-1.00;72.28;98586.31;7359297;19;20032;-52
2023/01/17 09:23:22;;;;;;;0.00;0.00;;;;;;;-0.86;72.39;98608.38;7361094;19;20034;-52
2023/01/17 09:25:55;;;;;;;0.10;0.10;;;;;;;-0.84;72.38;98610.91;7357889;19;20014;-54
2023/01/17 09:28:21;;;;;;;0.00;0.00;;;;;;;-0.83;72.47;98610.03;7358746;19;20021;-54
2023/01/17 09:30:47;;;;;;;0.10;0.10;;;;;;;-0.79;72.71;98619.41;7359257;19;22115;-57
2023/01/17 09:33:13;;;;;;;0.10;0.10;;;;;;;-0.74;72.85;98612.50;7362424;19;20073;-55
2023/01/17 09:35:38;;;;;;;0.10;0.10;;;;;;;-0.66;72.91;98625.22;7359785;19;20695;-53
2023/01/17 09:38:04;;;;;;;0.05;0.05;;;;;;;-0.54;73.22;98625.94;7362621;19;20903;-54
2023/01/17 09:40:29;;;;;;;0.00;0.00;;;;;;;-0.41;73.34;98626.66;7355616;19;20014;-56
2023/01/17 09:43:01;;;;;;;0.00;0.00;;;;;;;-0.21;73.46;98628.13;7359303;19;20018;-55
2023/01/17 09:45:29;;;;;;;0.00;0.00;;;;;;;-0.03;73.88;98627.91;7358211;19;20014;-52
2023/01/17 09:47:56;;;;;;;0.10;0.10;;;;;;;0.13;73.45;98629.38;7359047;19;20886;-52
2023/01/17 09:50:34;;;;;;;0.10;0.10;;;;;;;0.33;73.18;98630.81;7357749;19;20006;-51
2023/01/17 09:53:06;;;;;;;0.10;0.10;;;;;;;0.54;73.43;98639.91;7361783;19;20011;-55
2023/01/17 09:55:42;;;;;;;0.10;0.10;;;;;;;0.71;73.27;98649.06;7360761;19;20015;-53
2023/01/17 09:58:18;;;;;;;0.10;0.10;;;;;;;0.89;73.60;98641.91;7360134;19;20013;-55
2023/01/17 10:01:02;;;;;;;0.00;0.00;;;;;;;1.11;73.38;98643.22;7357694;19;20022;-51
2023/01/17 10:03:55;;;;;;;0.08;0.08;;;;;;;1.33;73.74;98653.16;7357102;19;20025;-56
2023/01/17 10:06:44;;;;;;;0.10;0.10;;;;;;;1.57;73.68;98662.94;7256418;19;2004384;-54
2023/01/17 10:09:18;;;;;;;0.00;0.00;;;;;;;1.76;73.24;98664.28;7257688;19;2004310;-54
2023/01/17 10:12:25;;;;;;;0.00;0.00;;;;;;;1.99;73.01;98665.56;7359060;19;20006;-56
2023/01/17 10:15:07;;;;;;;0.00;0.00;;;;;;;2.18;73.05;98666.88;7256397;19;2004239;-54
2023/01/17 10:17:35;;;;;;;0.00;0.00;;;;;;;2.39;73.20;98664.72;7359687;19;20006;-54
2023/01/17 10:20:19;;;;;;;0.00;0.00;;;;;;;2.60;73.15;98664.22;7359041;19;20094;-53
2023/01/17 10:23:06;;;;;;;0.10;0.10;;;;;;;2.77;72.78;98668.97;7361849;19;20011;-55
2023/01/17 10:25:41;;;;;;;0.00;0.00;;;;;;;3.00;72.17;98669.28;7355471;19;20025;-54
2023/01/17 10:28:15;;;;;;;0.00;0.00;;;;;;;3.20;72.12;98665.34;7359498;19;20010;-56
2023/01/17 10:30:50;;;;;;;0.00;0.00;;;;;;;3.42;72.10;98674.22;7356265;19;20018;-55
2023/01/17 10:33:34;;;;;;;0.00;0.00;;;;;;;3.68;72.63;98676.09;7359121;19;20006;-53
2023/01/17 10:36:07;;;;;;;0.00;0.00;;;;;;;3.86;71.36;98678.19;7363403;19;20018;-57
2023/01/17 10:38:37;;;;;;;0.00;0.00;;;;;;;4.07;70.48;98673.28;7363099;19;20014;-56
2023/01/17 10:41:17;;;;;;;0.00;0.00;;;;;;;4.25;70.64;98674.47;7361071;19;20017;-55
2023/01/17 10:43:46;;;;;;;0.00;0.00;;;;;;;4.48;70.27;98666.91;7361479;19;20031;-54
2023/01/17 10:46:20;;;;;;;0.00;0.00;;;;;;;4.74;69.42;98679.00;7364082;19;20013;-55
2023/01/17 10:48:49;;;;;;;0.00;0.00;;;;;;;4.85;68.96;98661.41;7361663;19;20024;-55
2023/01/17 10:51:32;;;;;;;0.00;0.00;;;;;;;5.21;68.80;98674.03;7363546;19;20006;-56
2023/01/17 10:54:37;;;;;;;0.00;0.00;;;;;;;5.52;69.63;98678.16;7363915;19;20120;-54
2023/01/17 10:57:02;;;;;;;0.00;0.00;;;;;;;5.72;68.87;98680.91;7262719;19;2004606;-56
2023/01/17 10:59:31;;;;;;;0.00;0.00;;;;;;;5.96;68.10;98672.28;7365829;19;20017;-56
2023/01/17 11:01:57;;;;;;;0.00;0.00;;;;;;;6.14;67.69;98680.31;7366225;19;20014;-57
2023/01/17 11:04:31;;;;;;;0.10;0.10;;;;;;;6.39;68.05;98668.09;7362814;19;20010;-55
2023/01/17 11:07:19;;;;;;;0.10;0.10;;;;;;;6.62;68.54;98679.31;7367187;19;20549;-55
2023/01/17 11:09:53;;;;;;;0.05;0.05;;;;;;;6.68;66.94;98658.31;7363552;19;20014;-56
2023/01/17 11:12:24;;;;;;;0.10;0.10;;;;;;;6.88;67.55;98676.53;7366158;19;20010;-56
2023/01/17 11:15:01;;;;;;;0.00;0.00;;;;;;;7.05;67.40;98667.25;7364374;19;20026;-57
2023/01/17 11:17:28;;;;;;;0.00;0.00;;;;;;;7.02;66.02;98674.25;7366796;19;20430;-56
2023/01/17 11:20:04;;;;;;;0.00;0.00;;;;;;;6.98;65.54;98666.63;7362045;19;20134;-54
2023/01/17 11:22:30;;;;;;;0.00;0.00;;;;;;;7.06;66.01;98669.78;7363071;19;20025;-55
2023/01/17 11:24:58;;;;;;;0.00;0.00;;;;;;;7.12;66.56;98674.72;7364894;19;20086;-53
2023/01/17 11:27:26;;;;;;;0.00;0.00;;;;;;;7.23;67.22;98676.84;7362558;19;20095;-53
2023/01/17 11:30:15;;;;;;;0.10;0.10;;;;;;;7.43;67.68;98679.47;7360965;19;20017;-56
2023/01/17 11:33:02;;;;;;;0.00;0.00;;;;;;;7.58;67.53;98683.16;7363894;19;20470;-56
2023/01/17 11:35:43;;;;;;;0.00;0.00;;;;;;;7.69;66.36;98669.72;7362426;19;20361;-57
2023/01/17 11:38:19;;;;;;;0.00;0.00;;;;;;;7.91;66.23;98675.66;7366327;19;20878;-56
2023/01/17 11:40:46;;;;;;;0.00;0.00;;;;;;;8.03;64.74;98672.50;7364259;19;20010;-55
2023/01/17 11:43:14;;;;;;;0.00;0.00;;;;;;;8.22;64.62;98676.91;7365444;19;20018;-54
2023/01/17 11:45:40;;;;;;;0.00;0.00;;;;;;;8.40;64.00;98672.63;7360579;19;20011;-55
2023/01/17 11:48:11;;;;;;;0.00;0.00;;;;;;;8.63;64.53;98669.81;7365071;19;20024;-56
2023/01/17 11:50:54;;;;;;;0.10;0.10;;;;;;;8.83;65.39;98671.47;7362490;19;20101;-57
2023/01/17 11:53:39;;;;;;;0.00;0.00;;;;;;;9.08;64.01;98673.72;7359520;19;20022;-55
2023/01/17 11:56:10;;;;;;;0.10;0.10;;;;;;;9.27;63.44;98665.81;7363754;19;20876;-54
2023/01/17 11:58:40;;;;;;;0.10;0.10;;;;;;;9.44;62.19;98662.38;7364521;19;20640;-57
2023/01/17 12:01:24;;;;;;;0.10;0.10;;;;;;;9.66;63.07;98657.75;7363807;19;20742;-57
2023/01/17 12:04:08;;;;;;;0.00;0.00;;;;;;;9.81;62.31;98659.56;7359094;19;20006;-54
2023/01/17 12:07:08;;;;;;;0.00;0.00;;;;;;;10.07;63.08;98658.19;7364221;19;20003;-54
2023/01/17 12:10:01;;;;;;;0.03;0.03;;;;;;;10.27;64.00;98674.56;7260898;19;2004073;-57
2023/01/17 12:15:46;;;;;;;0.10;0.10;;;;;;;10.48;62.63;98667.34;7261336;19;2004372;-56
2023/01/17 12:18:29;;;;;;;0.10;0.10;;;;;;;10.61;62.52;98669.19;7362300;19;20017;-56
2023/01/17 12:21:04;;;;;;;0.00;0.00;;;;;;;10.73;62.09;98678.09;7363501;19;20018;-56
2023/01/17 12:23:58;;;;;;;0.05;0.05;;;;;;;10.87;60.88;98680.78;7360732;19;20018;-57
2023/01/17 12:26:40;;;;;;;0.00;0.00;;;;;;;10.99;60.22;98679.25;7256464;19;2004537;-54
2023/01/17 12:29:18;;;;;;;0.10;0.10;;;;;;;11.16;62.39;98675.69;7360629;19;20023;-57
2023/01/17 12:32:18;;;;;;;0.10;0.10;;;;;;;11.31;62.65;98681.81;7359717;19;20018;-57
2023/01/17 12:35:08;;;;;;;0.03;0.03;;;;;;;11.40;62.15;98682.13;7238049;19;2005337;-56
2023/01/17 12:37:41;;;;;;;0.10;0.10;;;;;;;11.22;59.59;98637.94;7359679;19;20011;-57
2023/01/17 12:40:13;;;;;;;0.00;0.00;;;;;;;11.51;60.25;98660.59;7355740;19;20054;-57
2023/01/17 12:42:47;;;;;;;0.10;0.10;;;;;;;11.70;59.70;98665.53;7359894;19;20027;-56
2023/01/17 12:45:20;;;;;;;0.00;0.00;;;;;;;11.81;58.73;98673.59;7356367;19;20006;-56
2023/01/17 12:47:53;;;;;;;0.00;0.00;;;;;;;11.84;58.36;98669.97;7360585;19;20037;-57
2023/01/17 12:50:32;;;;;;;0.08;0.08;;;;;;;12.00;62.44;98672.50;7363242;19;20023;-56
2023/01/17 12:53:23;;;;;;;0.03;0.03;;;;;;;12.13;60.61;98684.75;7363380;19;20030;-55
2023/01/17 12:56:06;;;;;;;0.10;0.10;;;;;;;12.05;61.58;98645.13;7360886;19;20483;-56
2023/01/17 12:58:45;;;;;;;0.10;0.10;;;;;;;12.35;59.58;98680.81;7356309;19;20011;-57
2023/01/17 13:01:38;;;;;;;0.03;0.03;;;;;;;12.48;61.61;98676.50;7362532;19;20022;-56
2023/01/17 13:04:17;;;;;;;0.10;0.10;;;;;;;12.59;58.75;98679.28;7257065;19;2004407;-56
2023/01/17 13:06:55;;;;;;;0.00;0.00;;;;;;;12.68;56.99;98673.47;7360808;19;20033;-57
2023/01/17 13:09:22;;;;;;;0.00;0.00;;;;;;;12.75;57.45;98673.91;7362029;19;20027;-57
2023/01/17 13:11:54;;;;;;;0.03;0.03;;;;;;;12.88;56.63;98672.19;7360372;19;20390;-57
2023/01/17 13:14:19;;;;;;;0.05;0.05;;;;;;;12.89;55.66;98679.09;7347860;19;20434;-54
2023/01/17 13:16:56;;;;;;;0.10;0.10;;;;;;;12.99;56.92;98669.69;7361981;19;20006;-57
2023/01/17 13:19:57;;;;;;;0.03;0.03;;;;;;;13.04;58.05;98669.41;7358612;19;20107;-56